sensor_id;sensor_type;location;lat;lon;timestamp;P1;durP1;ratioP1;P2;durP2;ratioP2
21901;SDS011;11115;46.038;14.612;2022-12-18T00:02:15;62.43;;;15.50;;
21901;SDS011;11115;46.038;14.612;2022-12-18T00:04:51;27.70;;;6.13;;
21901;SDS011;11115;46.038;14.612;2022-12-18T00:07:21;21.73;;;5.23;;
21901;SDS011;11115;46.038;14.612;2022-12-18T00:09:53;24.50;;;8.17;;
21901;SDS011;11115;46.038;14.612;2022-12-18T00:12:25;29.07;;;8.00;;
21901;SDS011;11115;46.038;14.612;2022-12-18T00:15:07;12.30;;;4.03;;
21901;SDS011;11115;46.038;14.612;2022-12-18T00:17:41;27.67;;;5.17;;
21901;SDS011;11115;46.038;14.612;2022-12-18T00:20:09;5.60;;;2.70;;
21901;SDS011;11115;46.038;14.612;2022-12-18T00:25:40;5.63;;;2.10;;
21901;SDS011;11115;46.038;14.612;2022-12-18T00:28:13;2.97;;;2.63;;
21901;SDS011;11115;46.038;14.612;2022-12-18T00:30:48;5.73;;;3.03;;
21901;SDS011;11115;46.038;14.612;2022-12-18T00:33:20;5.47;;;2.83;;
21901;SDS011;11115;46.038;14.612;2022-12-18T00:36:06;16.63;;;4.23;;
21901;SDS011;11115;46.038;14.612;2022-12-18T00:38:44;5.20;;;3.53;;
21901;SDS011;11115;46.038;14.612;2022-12-18T00:41:18;6.77;;;3.10;;
21901;SDS011;11115;46.038;14.612;2022-12-18T00:44:06;6.07;;;2.93;;
21901;SDS011;11115;46.038;14.612;2022-12-18T00:46:35;9.13;;;4.07;;
21901;SDS011;11115;46.038;14.612;2022-12-18T00:49:20;12.60;;;4.53;;
21901;SDS011;11115;46.038;14.612;2022-12-18T00:51:58;8.97;;;3.70;;
21901;SDS011;11115;46.038;14.612;2022-12-18T00:54:36;7.23;;;3.40;;
21901;SDS011;11115;46.038;14.612;2022-12-18T00:57:06;5.80;;;4.00;;
21901;SDS011;11115;46.038;14.612;2022-12-18T00:59:38;11.27;;;3.80;;
21901;SDS011;11115;46.038;14.612;2022-12-18T01:02:11;9.33;;;3.37;;
21901;SDS011;11115;46.038;14.612;2022-12-18T01:04:43;4.95;;;3.10;;
21901;SDS011;11115;46.038;14.612;2022-12-18T01:07:20;6.87;;;1.97;;
21901;SDS011;11115;46.038;14.612;2022-12-18T01:09:57;7.23;;;4.03;;
21901;SDS011;11115;46.038;14.612;2022-12-18T01:12:29;6.10;;;2.53;;
21901;SDS011;11115;46.038;14.612;2022-12-18T01:15:02;4.43;;;2.47;;
21901;SDS011;11115;46.038;14.612;2022-12-18T01:17:37;4.47;;;1.87;;
21901;SDS011;11115;46.038;14.612;2022-12-18T01:20:08;7.95;;;2.75;;
21901;SDS011;11115;46.038;14.612;2022-12-18T01:22:38;2.67;;;2.07;;
21901;SDS011;11115;46.038;14.612;2022-12-18T01:25:09;3.40;;;2.15;;
21901;SDS011;11115;46.038;14.612;2022-12-18T01:27:42;6.70;;;3.33;;
21901;SDS011;11115;46.038;14.612;2022-12-18T01:30:11;6.30;;;2.73;;
21901;SDS011;11115;46.038;14.612;2022-12-18T01:32:47;4.33;;;3.27;;
21901;SDS011;11115;46.038;14.612;2022-12-18T01:35:18;9.30;;;3.60;;
21901;SDS011;11115;46.038;14.612;2022-12-18T01:37:49;6.13;;;3.13;;
21901;SDS011;11115;46.038;14.612;2022-12-18T01:40:19;6.13;;;3.17;;
21901;SDS011;11115;46.038;14.612;2022-12-18T01:42:52;3.00;;;2.20;;
21901;SDS011;11115;46.038;14.612;2022-12-18T01:45:25;3.17;;;2.80;;
21901;SDS011;11115;46.038;14.612;2022-12-18T01:48:03;7.00;;;3.33;;
21901;SDS011;11115;46.038;14.612;2022-12-18T01:50:41;4.13;;;2.70;;
21901;SDS011;11115;46.038;14.612;2022-12-18T01:53:19;9.57;;;3.07;;
21901;SDS011;11115;46.038;14.612;2022-12-18T01:55:53;12.63;;;3.67;;
21901;SDS011;11115;46.038;14.612;2022-12-18T01:58:41;6.90;;;2.83;;
21901;SDS011;11115;46.038;14.612;2022-12-18T02:01:25;7.93;;;3.97;;
21901;SDS011;11115;46.038;14.612;2022-12-18T02:04:19;5.87;;;3.13;;
21901;SDS011;11115;46.038;14.612;2022-12-18T02:10:06;5.23;;;3.10;;
21901;SDS011;11115;46.038;14.612;2022-12-18T02:15:51;6.43;;;3.63;;
21901;SDS011;11115;46.038;14.612;2022-12-18T02:18:35;3.93;;;2.47;;
21901;SDS011;11115;46.038;14.612;2022-12-18T02:29:40;7.67;;;3.60;;
21901;SDS011;11115;46.038;14.612;2022-12-18T02:32:34;7.20;;;4.43;;
21901;SDS011;11115;46.038;14.612;2022-12-18T02:35:23;10.40;;;3.73;;
21901;SDS011;11115;46.038;14.612;2022-12-18T02:37:59;3.07;;;2.87;;
21901;SDS011;11115;46.038;14.612;2022-12-18T02:40:35;5.93;;;2.33;;
21901;SDS011;11115;46.038;14.612;2022-12-18T02:43:17;5.70;;;3.27;;
21901;SDS011;11115;46.038;14.612;2022-12-18T02:45:54;4.63;;;2.60;;
21901;SDS011;11115;46.038;14.612;2022-12-18T02:48:33;5.13;;;1.93;;
21901;SDS011;11115;46.038;14.612;2022-12-18T02:51:03;2.87;;;1.63;;
21901;SDS011;11115;46.038;14.612;2022-12-18T02:53:58;4.83;;;3.50;;
21901;SDS011;11115;46.038;14.612;2022-12-18T02:56:50;4.03;;;2.60;;
21901;SDS011;11115;46.038;14.612;2022-12-18T02:59:34;7.90;;;3.00;;
21901;SDS011;11115;46.038;14.612;2022-12-18T03:02:32;5.77;;;2.73;;
21901;SDS011;11115;46.038;14.612;2022-12-18T03:08:17;8.17;;;3.83;;
21901;SDS011;11115;46.038;14.612;2022-12-18T03:10:59;11.60;;;3.20;;
21901;SDS011;11115;46.038;14.612;2022-12-18T03:13:52;5.57;;;2.97;;
21901;SDS011;11115;46.038;14.612;2022-12-18T03:16:30;9.23;;;2.73;;
21901;SDS011;11115;46.038;14.612;2022-12-18T03:19:28;5.77;;;2.63;;
21901;SDS011;11115;46.038;14.612;2022-12-18T03:22:04;5.27;;;3.70;;
21901;SDS011;11115;46.038;14.612;2022-12-18T03:24:45;4.85;;;3.28;;
21901;SDS011;11115;46.038;14.612;2022-12-18T03:27:26;8.77;;;3.23;;
21901;SDS011;11115;46.038;14.612;2022-12-18T03:30:10;7.63;;;3.17;;
21901;SDS011;11115;46.038;14.612;2022-12-18T03:35:28;4.67;;;1.43;;
21901;SDS011;11115;46.038;14.612;2022-12-18T03:38:01;6.67;;;2.67;;
21901;SDS011;11115;46.038;14.612;2022-12-18T03:40:39;3.37;;;2.67;;
21901;SDS011;11115;46.038;14.612;2022-12-18T03:49:10;2.97;;;2.70;;
21901;SDS011;11115;46.038;14.612;2022-12-18T03:52:07;6.43;;;3.10;;
21901;SDS011;11115;46.038;14.612;2022-12-18T03:54:42;5.23;;;2.00;;
21901;SDS011;11115;46.038;14.612;2022-12-18T03:57:18;6.17;;;3.50;;
21901;SDS011;11115;46.038;14.612;2022-12-18T03:59:53;20.90;;;2.47;;
21901;SDS011;11115;46.038;14.612;2022-12-18T04:02:52;4.60;;;2.40;;
21901;SDS011;11115;46.038;14.612;2022-12-18T04:05:34;6.30;;;2.67;;
21901;SDS011;11115;46.038;14.612;2022-12-18T04:08:15;7.07;;;2.40;;
21901;SDS011;11115;46.038;14.612;2022-12-18T04:10:56;15.73;;;3.13;;
21901;SDS011;11115;46.038;14.612;2022-12-18T04:13:32;11.33;;;3.40;;
21901;SDS011;11115;46.038;14.612;2022-12-18T04:19:05;9.67;;;4.40;;
21901;SDS011;11115;46.038;14.612;2022-12-18T04:21:44;7.60;;;3.20;;
21901;SDS011;11115;46.038;14.612;2022-12-18T04:24:20;11.77;;;3.93;;
21901;SDS011;11115;46.038;14.612;2022-12-18T04:27:03;12.03;;;3.40;;
21901;SDS011;11115;46.038;14.612;2022-12-18T04:29:49;17.63;;;2.97;;
21901;SDS011;11115;46.038;14.612;2022-12-18T04:32:18;10.60;;;2.80;;
21901;SDS011;11115;46.038;14.612;2022-12-18T04:34:54;7.93;;;2.87;;
21901;SDS011;11115;46.038;14.612;2022-12-18T04:37:25;4.03;;;2.17;;
21901;SDS011;11115;46.038;14.612;2022-12-18T04:42:43;8.07;;;3.17;;
21901;SDS011;11115;46.038;14.612;2022-12-18T04:45:15;5.23;;;2.40;;
21901;SDS011;11115;46.038;14.612;2022-12-18T04:47:47;3.93;;;2.70;;
21901;SDS011;11115;46.038;14.612;2022-12-18T04:50:17;3.07;;;1.93;;
21901;SDS011;11115;46.038;14.612;2022-12-18T04:52:50;14.13;;;3.37;;
21901;SDS011;11115;46.038;14.612;2022-12-18T04:55:19;6.07;;;2.57;;
21901;SDS011;11115;46.038;14.612;2022-12-18T04:57:53;4.00;;;3.00;;
21901;SDS011;11115;46.038;14.612;2022-12-18T05:00:30;17.33;;;4.53;;
21901;SDS011;11115;46.038;14.612;2022-12-18T05:03:00;6.00;;;3.10;;
21901;SDS011;11115;46.038;14.612;2022-12-18T05:05:39;12.07;;;4.07;;
21901;SDS011;11115;46.038;14.612;2022-12-18T05:08:08;5.30;;;3.37;;
21901;SDS011;11115;46.038;14.612;2022-12-18T05:10:44;8.67;;;3.33;;
21901;SDS011;11115;46.038;14.612;2022-12-18T05:13:18;11.57;;;3.37;;
21901;SDS011;11115;46.038;14.612;2022-12-18T05:15:53;12.52;;;3.17;;
21901;SDS011;11115;46.038;14.612;2022-12-18T05:18:22;10.90;;;4.57;;
21901;SDS011;11115;46.038;14.612;2022-12-18T05:21:00;10.70;;;4.10;;
21901;SDS011;11115;46.038;14.612;2022-12-18T05:23:33;7.60;;;3.17;;
21901;SDS011;11115;46.038;14.612;2022-12-18T05:26:16;6.37;;;3.77;;
21901;SDS011;11115;46.038;14.612;2022-12-18T05:28:49;5.17;;;2.23;;
21901;SDS011;11115;46.038;14.612;2022-12-18T05:31:24;6.27;;;4.23;;
21901;SDS011;11115;46.038;14.612;2022-12-18T05:34:05;9.37;;;3.23;;
21901;SDS011;11115;46.038;14.612;2022-12-18T05:36:36;11.50;;;3.47;;
21901;SDS011;11115;46.038;14.612;2022-12-18T05:39:07;22.33;;;2.33;;
21901;SDS011;11115;46.038;14.612;2022-12-18T05:41:38;9.50;;;4.57;;
21901;SDS011;11115;46.038;14.612;2022-12-18T05:44:10;17.00;;;3.83;;
21901;SDS011;11115;46.038;14.612;2022-12-18T05:46:44;15.40;;;4.60;;
21901;SDS011;11115;46.038;14.612;2022-12-18T05:49:15;9.67;;;4.27;;
21901;SDS011;11115;46.038;14.612;2022-12-18T05:51:48;7.70;;;4.57;;
21901;SDS011;11115;46.038;14.612;2022-12-18T05:54:19;21.77;;;4.97;;
21901;SDS011;11115;46.038;14.612;2022-12-18T05:56:54;12.10;;;4.37;;
21901;SDS011;11115;46.038;14.612;2022-12-18T05:59:25;3.55;;;2.80;;
21901;SDS011;11115;46.038;14.612;2022-12-18T06:01:55;14.90;;;5.55;;
21901;SDS011;11115;46.038;14.612;2022-12-18T06:04:36;7.83;;;3.60;;
21901;SDS011;11115;46.038;14.612;2022-12-18T06:07:10;10.80;;;3.67;;
21901;SDS011;11115;46.038;14.612;2022-12-18T06:09:41;9.40;;;4.40;;
21901;SDS011;11115;46.038;14.612;2022-12-18T06:12:15;12.33;;;4.70;;
21901;SDS011;11115;46.038;14.612;2022-12-18T06:14:45;7.15;;;4.47;;
21901;SDS011;11115;46.038;14.612;2022-12-18T06:17:31;9.33;;;3.43;;
21901;SDS011;11115;46.038;14.612;2022-12-18T06:20:09;8.90;;;3.30;;
21901;SDS011;11115;46.038;14.612;2022-12-18T06:22:41;15.33;;;4.00;;
21901;SDS011;11115;46.038;14.612;2022-12-18T06:25:11;5.07;;;3.30;;
21901;SDS011;11115;46.038;14.612;2022-12-18T06:27:46;16.00;;;4.77;;
21901;SDS011;11115;46.038;14.612;2022-12-18T06:30:23;16.27;;;5.27;;
21901;SDS011;11115;46.038;14.612;2022-12-18T06:33:06;7.32;;;3.40;;
21901;SDS011;11115;46.038;14.612;2022-12-18T06:35:38;11.52;;;5.75;;
21901;SDS011;11115;46.038;14.612;2022-12-18T06:38:10;7.10;;;4.28;;
21901;SDS011;11115;46.038;14.612;2022-12-18T06:40:49;13.30;;;4.27;;
21901;SDS011;11115;46.038;14.612;2022-12-18T06:43:22;19.77;;;4.93;;
21901;SDS011;11115;46.038;14.612;2022-12-18T06:45:59;11.13;;;3.83;;
21901;SDS011;11115;46.038;14.612;2022-12-18T06:48:29;6.03;;;3.60;;
21901;SDS011;11115;46.038;14.612;2022-12-18T06:50:59;26.98;;;3.92;;
21901;SDS011;11115;46.038;14.612;2022-12-18T06:53:28;11.43;;;6.00;;
21901;SDS011;11115;46.038;14.612;2022-12-18T06:56:05;8.40;;;3.53;;
21901;SDS011;11115;46.038;14.612;2022-12-18T06:58:37;8.73;;;3.00;;
21901;SDS011;11115;46.038;14.612;2022-12-18T07:01:09;7.43;;;4.50;;
21901;SDS011;11115;46.038;14.612;2022-12-18T07:03:54;9.43;;;4.13;;
21901;SDS011;11115;46.038;14.612;2022-12-18T07:06:29;10.63;;;3.90;;
21901;SDS011;11115;46.038;14.612;2022-12-18T07:08:57;16.97;;;4.53;;
21901;SDS011;11115;46.038;14.612;2022-12-18T07:11:29;9.73;;;3.07;;
21901;SDS011;11115;46.038;14.612;2022-12-18T07:14:11;6.87;;;3.40;;
21901;SDS011;11115;46.038;14.612;2022-12-18T07:16:41;5.83;;;3.57;;
21901;SDS011;11115;46.038;14.612;2022-12-18T07:19:16;14.77;;;3.80;;
21901;SDS011;11115;46.038;14.612;2022-12-18T07:21:56;25.30;;;6.07;;
21901;SDS011;11115;46.038;14.612;2022-12-18T07:24:39;7.47;;;4.33;;
21901;SDS011;11115;46.038;14.612;2022-12-18T07:27:15;8.47;;;3.27;;
21901;SDS011;11115;46.038;14.612;2022-12-18T07:29:49;5.23;;;2.73;;
21901;SDS011;11115;46.038;14.612;2022-12-18T07:32:23;5.67;;;3.10;;
21901;SDS011;11115;46.038;14.612;2022-12-18T07:34:56;7.97;;;4.27;;
21901;SDS011;11115;46.038;14.612;2022-12-18T07:37:27;12.77;;;3.43;;
21901;SDS011;11115;46.038;14.612;2022-12-18T07:40:03;11.93;;;2.63;;
21901;SDS011;11115;46.038;14.612;2022-12-18T07:42:32;7.00;;;3.50;;
21901;SDS011;11115;46.038;14.612;2022-12-18T07:45:03;4.40;;;2.35;;
21901;SDS011;11115;46.038;14.612;2022-12-18T07:47:34;7.90;;;4.20;;
21901;SDS011;11115;46.038;14.612;2022-12-18T07:50:04;22.17;;;5.37;;
21901;SDS011;11115;46.038;14.612;2022-12-18T07:52:37;6.23;;;3.90;;
21901;SDS011;11115;46.038;14.612;2022-12-18T07:55:06;7.67;;;3.67;;
21901;SDS011;11115;46.038;14.612;2022-12-18T07:57:35;5.77;;;4.07;;
21901;SDS011;11115;46.038;14.612;2022-12-18T08:02:58;15.17;;;5.47;;
21901;SDS011;11115;46.038;14.612;2022-12-18T08:06:09;6.18;;;2.95;;
21901;SDS011;11115;46.038;14.612;2022-12-18T08:08:42;9.93;;;5.13;;
21901;SDS011;11115;46.038;14.612;2022-12-18T08:11:14;9.10;;;5.00;;
21901;SDS011;11115;46.038;14.612;2022-12-18T08:13:47;16.67;;;4.70;;
21901;SDS011;11115;46.038;14.612;2022-12-18T08:16:25;24.87;;;3.43;;
21901;SDS011;11115;46.038;14.612;2022-12-18T08:18:54;8.23;;;2.77;;
21901;SDS011;11115;46.038;14.612;2022-12-18T08:21:38;14.30;;;4.07;;
21901;SDS011;11115;46.038;14.612;2022-12-18T08:24:19;7.78;;;2.88;;
21901;SDS011;11115;46.038;14.612;2022-12-18T08:26:57;11.00;;;4.50;;
21901;SDS011;11115;46.038;14.612;2022-12-18T08:29:49;6.60;;;3.90;;
21901;SDS011;11115;46.038;14.612;2022-12-18T08:32:22;6.33;;;3.50;;
21901;SDS011;11115;46.038;14.612;2022-12-18T08:34:59;7.23;;;2.67;;
21901;SDS011;11115;46.038;14.612;2022-12-18T08:37:27;7.47;;;3.87;;
21901;SDS011;11115;46.038;14.612;2022-12-18T08:39:58;24.58;;;3.60;;
21901;SDS011;11115;46.038;14.612;2022-12-18T08:42:40;9.00;;;3.73;;
21901;SDS011;11115;46.038;14.612;2022-12-18T08:45:28;19.20;;;6.67;;
21901;SDS011;11115;46.038;14.612;2022-12-18T08:48:05;13.27;;;4.17;;
21901;SDS011;11115;46.038;14.612;2022-12-18T08:50:34;13.03;;;4.30;;
21901;SDS011;11115;46.038;14.612;2022-12-18T08:53:03;10.53;;;4.57;;
21901;SDS011;11115;46.038;14.612;2022-12-18T08:55:32;10.53;;;4.20;;
21901;SDS011;11115;46.038;14.612;2022-12-18T08:58:03;7.30;;;3.22;;
21901;SDS011;11115;46.038;14.612;2022-12-18T09:00:34;7.83;;;5.20;;
21901;SDS011;11115;46.038;14.612;2022-12-18T09:03:10;21.13;;;6.17;;
21901;SDS011;11115;46.038;14.612;2022-12-18T09:05:58;33.23;;;9.60;;
21901;SDS011;11115;46.038;14.612;2022-12-18T09:08:32;18.17;;;6.03;;
21901;SDS011;11115;46.038;14.612;2022-12-18T09:11:04;16.67;;;6.50;;
21901;SDS011;11115;46.038;14.612;2022-12-18T09:13:42;15.60;;;6.03;;
21901;SDS011;11115;46.038;14.612;2022-12-18T09:16:13;22.03;;;6.43;;
21901;SDS011;11115;46.038;14.612;2022-12-18T09:18:42;6.53;;;5.37;;
21901;SDS011;11115;46.038;14.612;2022-12-18T09:21:19;10.50;;;5.10;;
21901;SDS011;11115;46.038;14.612;2022-12-18T09:23:51;10.17;;;4.20;;
21901;SDS011;11115;46.038;14.612;2022-12-18T09:26:22;10.00;;;4.65;;
21901;SDS011;11115;46.038;14.612;2022-12-18T09:28:54;4.82;;;3.10;;
21901;SDS011;11115;46.038;14.612;2022-12-18T09:31:37;4.70;;;2.23;;
21901;SDS011;11115;46.038;14.612;2022-12-18T09:34:08;9.68;;;3.90;;
21901;SDS011;11115;46.038;14.612;2022-12-18T09:36:38;9.40;;;3.27;;
21901;SDS011;11115;46.038;14.612;2022-12-18T09:39:09;8.07;;;4.23;;
21901;SDS011;11115;46.038;14.612;2022-12-18T09:41:52;11.43;;;4.73;;
21901;SDS011;11115;46.038;14.612;2022-12-18T09:47:25;11.87;;;4.37;;
21901;SDS011;11115;46.038;14.612;2022-12-18T09:50:00;14.77;;;4.27;;
21901;SDS011;11115;46.038;14.612;2022-12-18T09:52:45;4.63;;;2.77;;
21901;SDS011;11115;46.038;14.612;2022-12-18T09:55:37;9.97;;;3.43;;
21901;SDS011;11115;46.038;14.612;2022-12-18T09:58:17;6.17;;;3.67;;
21901;SDS011;11115;46.038;14.612;2022-12-18T10:01:17;8.37;;;2.57;;
21901;SDS011;11115;46.038;14.612;2022-12-18T10:03:59;9.17;;;3.70;;
21901;SDS011;11115;46.038;14.612;2022-12-18T10:06:53;3.60;;;2.80;;
21901;SDS011;11115;46.038;14.612;2022-12-18T10:09:44;4.67;;;1.90;;
21901;SDS011;11115;46.038;14.612;2022-12-18T10:12:55;6.07;;;3.23;;
21901;SDS011;11115;46.038;14.612;2022-12-18T10:21:51;2.57;;;1.40;;
21901;SDS011;11115;46.038;14.612;2022-12-18T10:24:48;4.37;;;1.87;;
21901;SDS011;11115;46.038;14.612;2022-12-18T10:27:56;6.83;;;2.70;;
21901;SDS011;11115;46.038;14.612;2022-12-18T10:30:31;5.70;;;2.33;;
21901;SDS011;11115;46.038;14.612;2022-12-18T10:33:02;5.60;;;2.13;;
21901;SDS011;11115;46.038;14.612;2022-12-18T10:35:44;2.00;;;1.77;;
21901;SDS011;11115;46.038;14.612;2022-12-18T10:38:28;5.30;;;2.37;;
21901;SDS011;11115;46.038;14.612;2022-12-18T10:41:28;10.60;;;4.27;;
21901;SDS011;11115;46.038;14.612;2022-12-18T10:44:20;6.10;;;4.17;;
21901;SDS011;11115;46.038;14.612;2022-12-18T10:47:02;10.53;;;3.27;;
21901;SDS011;11115;46.038;14.612;2022-12-18T10:49:49;3.90;;;2.40;;
21901;SDS011;11115;46.038;14.612;2022-12-18T10:52:23;6.87;;;3.17;;
21901;SDS011;11115;46.038;14.612;2022-12-18T10:55:13;2.10;;;1.90;;
21901;SDS011;11115;46.038;14.612;2022-12-18T10:57:50;7.67;;;3.30;;
21901;SDS011;11115;46.038;14.612;2022-12-18T11:00:28;7.90;;;3.77;;
21901;SDS011;11115;46.038;14.612;2022-12-18T11:03:00;8.73;;;3.87;;
21901;SDS011;11115;46.038;14.612;2022-12-18T11:05:30;12.60;;;2.77;;
21901;SDS011;11115;46.038;14.612;2022-12-18T11:08:00;6.33;;;2.10;;
21901;SDS011;11115;46.038;14.612;2022-12-18T11:11:14;4.27;;;1.83;;
21901;SDS011;11115;46.038;14.612;2022-12-18T11:14:04;5.22;;;2.75;;
21901;SDS011;11115;46.038;14.612;2022-12-18T11:16:56;4.30;;;2.40;;
21901;SDS011;11115;46.038;14.612;2022-12-18T11:19:55;5.57;;;2.90;;
21901;SDS011;11115;46.038;14.612;2022-12-18T11:22:32;2.43;;;1.93;;
21901;SDS011;11115;46.038;14.612;2022-12-18T11:28:47;6.03;;;2.70;;
21901;SDS011;11115;46.038;14.612;2022-12-18T11:31:25;4.67;;;2.77;;
21901;SDS011;11115;46.038;14.612;2022-12-18T11:36:57;5.50;;;2.33;;
21901;SDS011;11115;46.038;14.612;2022-12-18T11:40:14;7.97;;;2.63;;
21901;SDS011;11115;46.038;14.612;2022-12-18T11:45:30;5.88;;;1.70;;
21901;SDS011;11115;46.038;14.612;2022-12-18T11:48:16;5.83;;;2.40;;
21901;SDS011;11115;46.038;14.612;2022-12-18T11:51:11;6.47;;;2.83;;
21901;SDS011;11115;46.038;14.612;2022-12-18T11:53:45;4.57;;;3.07;;
21901;SDS011;11115;46.038;14.612;2022-12-18T11:56:30;6.60;;;2.33;;
21901;SDS011;11115;46.038;14.612;2022-12-18T12:23:20;2.13;;;1.98;;
21901;SDS011;11115;46.038;14.612;2022-12-18T12:26:13;5.43;;;1.73;;
21901;SDS011;11115;46.038;14.612;2022-12-18T12:29:00;3.58;;;2.25;;
21901;SDS011;11115;46.038;14.612;2022-12-18T12:32:02;5.70;;;2.67;;
21901;SDS011;11115;46.038;14.612;2022-12-18T12:38:34;5.77;;;2.60;;
21901;SDS011;11115;46.038;14.612;2022-12-18T12:41:25;4.80;;;2.00;;
21901;SDS011;11115;46.038;14.612;2022-12-18T12:44:17;5.90;;;2.33;;
21901;SDS011;11115;46.038;14.612;2022-12-18T12:46:57;6.33;;;2.93;;
21901;SDS011;11115;46.038;14.612;2022-12-18T12:49:43;6.87;;;2.53;;
21901;SDS011;11115;46.038;14.612;2022-12-18T12:52:35;9.37;;;2.30;;
21901;SDS011;11115;46.038;14.612;2022-12-18T12:55:16;2.33;;;1.50;;
21901;SDS011;11115;46.038;14.612;2022-12-18T12:58:04;9.00;;;3.60;;
21901;SDS011;11115;46.038;14.612;2022-12-18T13:00:53;9.90;;;2.50;;
21901;SDS011;11115;46.038;14.612;2022-12-18T13:06:47;6.73;;;2.03;;
21901;SDS011;11115;46.038;14.612;2022-12-18T13:09:22;5.87;;;3.33;;
21901;SDS011;11115;46.038;14.612;2022-12-18T13:11:55;6.60;;;2.33;;
21901;SDS011;11115;46.038;14.612;2022-12-18T13:15:20;3.00;;;2.27;;
21901;SDS011;11115;46.038;14.612;2022-12-18T13:21:08;3.53;;;2.10;;
21901;SDS011;11115;46.038;14.612;2022-12-18T13:23:52;5.33;;;2.73;;
21901;SDS011;11115;46.038;14.612;2022-12-18T13:26:32;2.37;;;1.97;;
21901;SDS011;11115;46.038;14.612;2022-12-18T13:29:08;3.30;;;1.67;;
21901;SDS011;11115;46.038;14.612;2022-12-18T13:34:36;5.03;;;2.30;;
21901;SDS011;11115;46.038;14.612;2022-12-18T13:40:24;2.10;;;1.90;;
21901;SDS011;11115;46.038;14.612;2022-12-18T13:43:41;5.72;;;2.45;;
21901;SDS011;11115;46.038;14.612;2022-12-18T13:46:41;2.93;;;1.77;;
21901;SDS011;11115;46.038;14.612;2022-12-18T13:52:20;4.80;;;1.83;;
21901;SDS011;11115;46.038;14.612;2022-12-18T13:55:19;7.97;;;1.97;;
21901;SDS011;11115;46.038;14.612;2022-12-18T13:58:03;4.97;;;1.53;;
21901;SDS011;11115;46.038;14.612;2022-12-18T14:00:40;3.20;;;1.70;;
21901;SDS011;11115;46.038;14.612;2022-12-18T14:03:30;2.00;;;1.67;;
21901;SDS011;11115;46.038;14.612;2022-12-18T14:06:06;3.57;;;2.03;;
21901;SDS011;11115;46.038;14.612;2022-12-18T14:08:41;7.40;;;2.83;;
21901;SDS011;11115;46.038;14.612;2022-12-18T14:11:20;6.07;;;3.23;;
21901;SDS011;11115;46.038;14.612;2022-12-18T14:14:00;20.10;;;4.47;;
21901;SDS011;11115;46.038;14.612;2022-12-18T14:16:37;12.67;;;4.03;;
21901;SDS011;11115;46.038;14.612;2022-12-18T14:19:22;7.17;;;3.27;;
21901;SDS011;11115;46.038;14.612;2022-12-18T14:22:00;4.77;;;3.87;;
21901;SDS011;11115;46.038;14.612;2022-12-18T14:24:30;18.33;;;8.90;;
21901;SDS011;11115;46.038;14.612;2022-12-18T14:27:20;6.17;;;4.67;;
21901;SDS011;11115;46.038;14.612;2022-12-18T14:29:58;8.33;;;4.03;;
21901;SDS011;11115;46.038;14.612;2022-12-18T14:32:42;6.43;;;4.03;;
21901;SDS011;11115;46.038;14.612;2022-12-18T14:35:18;3.50;;;3.03;;
21901;SDS011;11115;46.038;14.612;2022-12-18T14:41:01;7.23;;;3.10;;
21901;SDS011;11115;46.038;14.612;2022-12-18T14:43:46;2.60;;;2.13;;
21901;SDS011;11115;46.038;14.612;2022-12-18T14:46:38;3.03;;;2.13;;
21901;SDS011;11115;46.038;14.612;2022-12-18T14:52:05;4.90;;;1.73;;
21901;SDS011;11115;46.038;14.612;2022-12-18T14:54:37;3.70;;;1.83;;
21901;SDS011;11115;46.038;14.612;2022-12-18T14:57:29;5.17;;;2.20;;
21901;SDS011;11115;46.038;14.612;2022-12-18T15:00:20;5.10;;;2.47;;
21901;SDS011;11115;46.038;14.612;2022-12-18T15:02:55;3.83;;;1.60;;
21901;SDS011;11115;46.038;14.612;2022-12-18T15:05:30;4.03;;;1.80;;
21901;SDS011;11115;46.038;14.612;2022-12-18T15:08:00;6.70;;;2.72;;
21901;SDS011;11115;46.038;14.612;2022-12-18T15:10:52;5.83;;;2.57;;
21901;SDS011;11115;46.038;14.612;2022-12-18T15:13:29;9.17;;;2.70;;
21901;SDS011;11115;46.038;14.612;2022-12-18T15:16:02;4.87;;;2.77;;
21901;SDS011;11115;46.038;14.612;2022-12-18T15:18:32;5.83;;;1.13;;
21901;SDS011;11115;46.038;14.612;2022-12-18T15:23:48;9.57;;;3.50;;
21901;SDS011;11115;46.038;14.612;2022-12-18T15:26:26;8.60;;;3.03;;
21901;SDS011;11115;46.038;14.612;2022-12-18T15:29:21;14.40;;;5.20;;
21901;SDS011;11115;46.038;14.612;2022-12-18T15:32:02;4.63;;;3.97;;
21901;SDS011;11115;46.038;14.612;2022-12-18T15:34:48;5.27;;;2.67;;
21901;SDS011;11115;46.038;14.612;2022-12-18T15:37:19;3.93;;;2.83;;
21901;SDS011;11115;46.038;14.612;2022-12-18T15:39:50;11.02;;;3.97;;
21901;SDS011;11115;46.038;14.612;2022-12-18T15:42:28;8.13;;;3.03;;
21901;SDS011;11115;46.038;14.612;2022-12-18T15:45:16;4.33;;;3.07;;
21901;SDS011;11115;46.038;14.612;2022-12-18T15:47:50;3.07;;;2.40;;
21901;SDS011;11115;46.038;14.612;2022-12-18T15:50:20;5.77;;;2.73;;
21901;SDS011;11115;46.038;14.612;2022-12-18T15:52:56;5.37;;;3.67;;
21901;SDS011;11115;46.038;14.612;2022-12-18T15:55:31;7.17;;;3.73;;
21901;SDS011;11115;46.038;14.612;2022-12-18T15:58:27;8.17;;;4.13;;
21901;SDS011;11115;46.038;14.612;2022-12-18T16:01:07;10.00;;;4.77;;
21901;SDS011;11115;46.038;14.612;2022-12-18T16:03:46;7.80;;;2.50;;
21901;SDS011;11115;46.038;14.612;2022-12-18T16:06:17;6.63;;;3.15;;
21901;SDS011;11115;46.038;14.612;2022-12-18T16:08:48;7.70;;;2.57;;
21901;SDS011;11115;46.038;14.612;2022-12-18T16:11:32;14.30;;;5.13;;
21901;SDS011;11115;46.038;14.612;2022-12-18T16:17:02;9.10;;;3.17;;
21901;SDS011;11115;46.038;14.612;2022-12-18T16:19:42;6.80;;;4.28;;
21901;SDS011;11115;46.038;14.612;2022-12-18T16:24:55;4.93;;;2.33;;
21901;SDS011;11115;46.038;14.612;2022-12-18T16:27:25;9.00;;;2.93;;
21901;SDS011;11115;46.038;14.612;2022-12-18T16:29:59;3.93;;;2.57;;
21901;SDS011;11115;46.038;14.612;2022-12-18T16:32:33;4.20;;;3.00;;
21901;SDS011;11115;46.038;14.612;2022-12-18T16:35:14;10.80;;;3.42;;
21901;SDS011;11115;46.038;14.612;2022-12-18T16:37:48;6.93;;;2.80;;
21901;SDS011;11115;46.038;14.612;2022-12-18T16:40:22;4.20;;;1.93;;
21901;SDS011;11115;46.038;14.612;2022-12-18T16:42:51;6.60;;;2.73;;
21901;SDS011;11115;46.038;14.612;2022-12-18T16:45:25;6.90;;;2.65;;
21901;SDS011;11115;46.038;14.612;2022-12-18T16:48:03;5.63;;;3.83;;
21901;SDS011;11115;46.038;14.612;2022-12-18T16:50:33;1.30;;;1.20;;
21901;SDS011;11115;46.038;14.612;2022-12-18T16:53:14;4.63;;;2.15;;
21901;SDS011;11115;46.038;14.612;2022-12-18T16:55:53;2.53;;;1.80;;
21901;SDS011;11115;46.038;14.612;2022-12-18T16:58:29;2.50;;;1.90;;
21901;SDS011;11115;46.038;14.612;2022-12-18T17:01:07;9.70;;;2.80;;
21901;SDS011;11115;46.038;14.612;2022-12-18T17:06:25;4.17;;;2.17;;
21901;SDS011;11115;46.038;14.612;2022-12-18T17:08:56;4.27;;;2.10;;
21901;SDS011;11115;46.038;14.612;2022-12-18T17:11:36;2.63;;;1.77;;
21901;SDS011;11115;46.038;14.612;2022-12-18T17:14:12;6.73;;;2.00;;
21901;SDS011;11115;46.038;14.612;2022-12-18T17:16:47;2.90;;;1.53;;
21901;SDS011;11115;46.038;14.612;2022-12-18T17:19:37;7.70;;;2.20;;
21901;SDS011;11115;46.038;14.612;2022-12-18T17:22:07;6.20;;;2.40;;
21901;SDS011;11115;46.038;14.612;2022-12-18T17:24:40;2.90;;;2.30;;
21901;SDS011;11115;46.038;14.612;2022-12-18T17:27:23;2.77;;;2.07;;
21901;SDS011;11115;46.038;14.612;2022-12-18T17:30:10;1.93;;;1.83;;
21901;SDS011;11115;46.038;14.612;2022-12-18T17:32:42;10.93;;;2.83;;
21901;SDS011;11115;46.038;14.612;2022-12-18T17:35:13;2.67;;;1.53;;